createdAt,value
2018-09-16T00:00:47.590Z,1006.73
2018-09-16T00:01:53.812Z,1006.67
2018-09-16T00:02:59.492Z,1006.67
2018-09-16T00:04:06.300Z,1006.67
2018-09-16T00:05:12.408Z,1006.62
2018-09-16T00:06:18.128Z,1006.64
2018-09-16T00:07:24.842Z,1006.61
2018-09-16T00:08:31.036Z,1006.65
2018-09-16T00:09:37.290Z,1006.63
2018-09-16T00:10:43.431Z,1006.64
2018-09-16T00:11:49.151Z,1006.64
2018-09-16T00:12:55.866Z,1006.64
2018-09-16T00:14:02.053Z,1006.68
2018-09-16T00:15:08.252Z,1006.67
2018-09-16T00:16:14.455Z,1006.73
2018-09-16T00:17:20.677Z,1006.79
2018-09-16T00:18:26.880Z,1006.81
2018-09-16T00:19:33.071Z,1006.79
2018-09-16T00:20:39.302Z,1006.77
2018-09-16T00:21:45.465Z,1006.76
2018-09-16T00:22:51.298Z,1006.72
2018-09-16T00:23:57.875Z,1006.72
2018-09-16T00:25:04.071Z,1006.73
2018-09-16T00:26:10.283Z,1006.72
2018-09-16T00:27:15.977Z,1006.74
2018-09-16T00:28:22.687Z,1006.72
2018-09-16T00:29:28.363Z,1006.72
2018-09-16T00:30:35.057Z,1006.67
2018-09-16T00:31:41.279Z,1006.70
2018-09-16T00:32:47.459Z,1006.61
2018-09-16T00:33:53.640Z,1006.64
2018-09-16T00:35:00.826Z,1006.62
2018-09-16T00:36:05.537Z,1006.61
2018-09-16T00:37:11.729Z,1006.64
2018-09-16T00:38:18.409Z,1006.64
2018-09-16T00:39:24.611Z,1006.68
2018-09-16T00:40:30.303Z,1006.68
2018-09-16T00:41:36.996Z,1006.62
2018-09-16T00:42:43.290Z,1006.67
2018-09-16T00:43:49.375Z,1006.69
2018-09-16T00:44:55.571Z,1006.70
2018-09-16T00:46:01.751Z,1006.66
2018-09-16T00:47:07.948Z,1006.66
2018-09-16T00:48:14.155Z,1006.65
2018-09-16T00:49:20.331Z,1006.66
2018-09-16T00:50:26.528Z,1006.67
2018-09-16T00:51:32.708Z,1006.69
2018-09-16T00:52:38.421Z,1006.66
2018-09-16T00:53:44.604Z,1006.64
2018-09-16T00:54:51.290Z,1006.63
2018-09-16T00:55:57.489Z,1006.61
2018-09-16T00:57:03.662Z,1006.57
2018-09-16T00:58:09.359Z,1006.61
2018-09-16T00:59:15.538Z,1006.59
2018-09-16T01:00:22.224Z,1006.61
2018-09-16T01:01:28.429Z,1006.59
2018-09-16T01:02:34.601Z,1006.57
2018-09-16T01:03:40.780Z,1006.61
2018-09-16T01:04:46.477Z,1006.62
2018-09-16T01:05:52.660Z,1006.56
2018-09-16T01:06:59.350Z,1006.61
2018-09-16T01:08:05.044Z,1006.59
2018-09-16T01:09:11.219Z,1006.59
2018-09-16T01:10:17.399Z,1006.58
2018-09-16T01:11:23.575Z,1006.55
2018-09-16T01:12:29.759Z,1006.56
2018-09-16T01:13:36.461Z,1006.56
2018-09-16T01:14:42.648Z,1006.56
2018-09-16T01:15:48.310Z,1006.54
2018-09-16T01:16:54.986Z,1006.55
2018-09-16T01:18:00.678Z,1006.55
2018-09-16T01:19:07.361Z,1006.53
2018-09-16T01:20:13.535Z,1006.53
2018-09-16T01:21:19.724Z,1006.51
2018-09-16T01:22:25.905Z,1006.56
2018-09-16T01:23:31.587Z,1006.53
2018-09-16T01:24:37.768Z,1006.58
2018-09-16T01:25:44.433Z,1006.52
2018-09-16T01:26:50.620Z,1006.51
2018-09-16T01:27:56.297Z,1006.52
2018-09-16T01:29:02.987Z,1006.50
2018-09-16T01:30:08.652Z,1006.53
2018-09-16T01:31:14.841Z,1006.52
2018-09-16T01:32:21.503Z,1006.50
2018-09-16T01:33:27.697Z,1006.49
2018-09-16T01:34:33.370Z,1006.50
2018-09-16T01:35:39.547Z,1006.50
2018-09-16T01:36:45.727Z,1006.54
2018-09-16T01:37:51.904Z,1006.51
2018-09-16T01:38:58.581Z,1006.50
2018-09-16T01:40:04.759Z,1006.49
2018-09-16T01:41:10.926Z,1006.52
2018-09-16T01:42:17.100Z,1006.51
2018-09-16T01:43:26.227Z,1006.48
2018-09-16T01:44:29.463Z,1006.53
2018-09-16T01:45:35.139Z,1006.55
2018-09-16T01:46:41.813Z,1006.53
2018-09-16T01:47:47.973Z,1006.48
2018-09-16T01:48:53.680Z,1006.44
2018-09-16T01:50:00.325Z,1006.44
2018-09-16T01:51:06.011Z,1006.41
2018-09-16T01:52:12.671Z,1006.41
2018-09-16T01:53:18.861Z,1006.35
2018-09-16T01:54:25.048Z,1006.36
2018-09-16T01:55:31.192Z,1006.34
2018-09-16T01:56:36.873Z,1006.33
2018-09-16T01:57:43.543Z,1006.31
2018-09-16T01:58:49.228Z,1006.31
2018-09-16T01:59:55.904Z,1006.31
2018-09-16T02:01:02.067Z,1006.29
2018-09-16T02:02:08.275Z,1006.28
2018-09-16T02:03:13.916Z,1006.26
2018-09-16T02:04:20.112Z,1006.22
2018-09-16T02:05:26.261Z,1006.25
2018-09-16T02:06:32.433Z,1006.27
2018-09-16T02:07:38.587Z,1006.25
2018-09-16T02:08:44.765Z,1006.25
2018-09-16T02:09:51.436Z,1006.26
2018-09-16T02:10:57.587Z,1006.24
2018-09-16T02:12:03.267Z,1006.22
2018-09-16T02:13:09.936Z,1006.22
2018-09-16T02:14:15.613Z,1006.19
2018-09-16T02:15:21.791Z,1006.17
2018-09-16T02:16:28.434Z,1006.17
2018-09-16T02:17:34.621Z,1006.14
2018-09-16T02:18:40.797Z,1006.15
2018-09-16T02:19:46.964Z,1006.16
2018-09-16T02:20:52.635Z,1006.13
2018-09-16T02:21:58.800Z,1006.18
2018-09-16T02:23:04.975Z,1006.16
2018-09-16T02:24:11.641Z,1006.12
2018-09-16T02:25:17.313Z,1006.14
2018-09-16T02:26:23.462Z,1006.15
2018-09-16T02:27:29.639Z,1006.15
2018-09-16T02:28:36.360Z,1006.15
2018-09-16T02:29:41.984Z,1006.14
2018-09-16T02:30:48.143Z,1006.16
2018-09-16T02:31:54.293Z,1006.16
2018-09-16T02:33:00.971Z,1006.17
2018-09-16T02:34:07.092Z,1006.14
2018-09-16T02:35:13.303Z,1006.12
2018-09-16T02:36:18.956Z,1006.10
2018-09-16T02:37:25.319Z,1006.08
2018-09-16T02:38:32.787Z,1006.07
2018-09-16T02:39:37.949Z,1006.05
2018-09-16T02:40:43.619Z,1005.99
2018-09-16T02:41:50.279Z,1005.97
2018-09-16T02:42:55.941Z,1005.96
2018-09-16T02:44:02.623Z,1005.96
2018-09-16T02:45:08.274Z,1005.93
2018-09-16T02:46:14.425Z,1005.90
2018-09-16T02:47:21.081Z,1005.97
2018-09-16T02:48:27.239Z,1005.95
2018-09-16T02:49:33.412Z,1005.92
2018-09-16T02:50:39.101Z,1005.91
2018-09-16T02:51:45.236Z,1005.93
2018-09-16T02:52:51.896Z,1005.88
2018-09-16T02:53:58.051Z,1005.87
2018-09-16T02:55:03.727Z,1005.89
2018-09-16T02:56:09.880Z,1005.91
2018-09-16T02:57:16.519Z,1005.91
2018-09-16T02:58:22.292Z,1005.90
2018-09-16T02:59:28.834Z,1005.88
2018-09-16T03:00:35.070Z,1005.92
2018-09-16T03:01:42.157Z,1005.92
2018-09-16T03:02:47.325Z,1005.91
2018-09-16T03:03:53.506Z,1005.92
2018-09-16T03:04:59.667Z,1005.89
2018-09-16T03:06:05.825Z,1005.87
2018-09-16T03:07:11.979Z,1005.88
2018-09-16T03:08:18.135Z,1005.89
2018-09-16T03:09:24.325Z,1005.88
2018-09-16T03:10:30.471Z,1005.87
2018-09-16T03:11:36.692Z,1005.85
2018-09-16T03:12:42.760Z,1005.83
2018-09-16T03:13:48.943Z,1005.85
2018-09-16T03:14:55.100Z,1005.83
2018-09-16T03:16:01.260Z,1005.83
2018-09-16T03:17:06.950Z,1005.81
2018-09-16T03:18:13.080Z,1005.82
2018-09-16T03:19:19.734Z,1005.80
2018-09-16T03:20:25.892Z,1005.82
2018-09-16T03:21:32.033Z,1005.82
2018-09-16T03:22:38.280Z,1005.80
2018-09-16T03:23:43.856Z,1005.80
2018-09-16T03:24:50.014Z,1005.88
2018-09-16T03:25:56.665Z,1005.89
2018-09-16T03:27:02.814Z,1005.89
2018-09-16T03:28:08.997Z,1005.91
2018-09-16T03:29:15.130Z,1005.91
2018-09-16T03:30:21.273Z,1005.88
2018-09-16T03:31:26.951Z,1005.84
2018-09-16T03:32:33.584Z,1005.85
2018-09-16T03:33:39.266Z,1005.83
2018-09-16T03:34:45.908Z,1005.82
2018-09-16T03:35:52.055Z,1005.79
2018-09-16T03:36:58.283Z,1005.76
2018-09-16T03:38:04.357Z,1005.74
2018-09-16T03:39:10.512Z,1005.75
2018-09-16T03:40:16.671Z,1005.74
2018-09-16T03:41:22.803Z,1005.73
2018-09-16T03:42:29.961Z,1005.75
2018-09-16T03:43:35.148Z,1005.74
2018-09-16T03:44:41.268Z,1005.77
2018-09-16T03:45:46.921Z,1005.76
2018-09-16T03:46:53.651Z,1005.76
2018-09-16T03:47:59.728Z,1005.76
2018-09-16T03:49:05.870Z,1005.72
2018-09-16T03:50:12.023Z,1005.79
2018-09-16T03:51:18.284Z,1005.79
2018-09-16T03:52:23.824Z,1005.79
2018-09-16T03:53:30.479Z,1005.77
2018-09-16T03:54:36.620Z,1005.77
2018-09-16T03:55:42.771Z,1005.75
2018-09-16T03:56:48.439Z,1005.74
2018-09-16T03:57:55.082Z,1005.74
2018-09-16T03:59:01.224Z,1005.73
2018-09-16T04:00:06.885Z,1005.75
2018-09-16T04:01:13.504Z,1005.73
2018-09-16T04:02:19.670Z,1005.72
2018-09-16T04:03:25.315Z,1005.72
2018-09-16T04:04:31.941Z,1005.68
2018-09-16T04:05:38.098Z,1005.65
2018-09-16T04:06:44.335Z,1005.66
2018-09-16T04:07:50.393Z,1005.63
2018-09-16T04:08:56.531Z,1005.63
2018-09-16T04:10:02.688Z,1005.61
2018-09-16T04:11:08.824Z,1005.65
2018-09-16T04:12:14.974Z,1005.64
2018-09-16T04:13:21.118Z,1005.67
2018-09-16T04:14:27.257Z,1005.65
2018-09-16T04:15:33.410Z,1005.64
2018-09-16T04:16:39.051Z,1005.67
2018-09-16T04:17:45.699Z,1005.73
2018-09-16T04:18:51.331Z,1005.75
2018-09-16T04:19:57.966Z,1005.76
2018-09-16T04:21:04.148Z,1005.75
2018-09-16T04:22:10.284Z,1005.70
2018-09-16T04:23:16.413Z,1005.71
2018-09-16T04:24:22.546Z,1005.74
2018-09-16T04:25:28.700Z,1005.72
2018-09-16T04:26:34.845Z,1005.71
2018-09-16T04:27:40.998Z,1005.71
2018-09-16T04:28:46.637Z,1005.73
2018-09-16T04:29:52.780Z,1005.72
2018-09-16T04:30:59.422Z,1005.72
2018-09-16T04:32:05.073Z,1005.72
2018-09-16T04:33:11.705Z,1005.70
2018-09-16T04:34:17.857Z,1005.70
2018-09-16T04:35:23.997Z,1005.66
2018-09-16T04:36:29.636Z,1005.71
2018-09-16T04:37:36.325Z,1005.68
2018-09-16T04:38:42.414Z,1005.70
2018-09-16T04:39:48.070Z,1005.68
2018-09-16T04:40:54.219Z,1005.72
2018-09-16T04:42:00.855Z,1005.75
2018-09-16T04:43:06.504Z,1005.74
2018-09-16T04:44:12.640Z,1005.76
2018-09-16T04:45:18.786Z,1005.78
2018-09-16T04:46:25.433Z,1005.82
2018-09-16T04:47:31.577Z,1005.79
2018-09-16T04:48:37.206Z,1005.76
2018-09-16T04:49:43.396Z,1005.72
2018-09-16T04:50:49.985Z,1005.76
2018-09-16T04:51:56.118Z,1005.69
2018-09-16T04:53:02.302Z,1005.69
2018-09-16T04:54:07.900Z,1005.73
2018-09-16T04:55:14.544Z,1005.73
2018-09-16T04:56:20.665Z,1005.78
2018-09-16T04:57:26.325Z,1005.76
2018-09-16T04:58:32.964Z,1005.79
2018-09-16T04:59:39.097Z,1005.82
2018-09-16T05:00:45.226Z,1005.81
2018-09-16T05:01:50.886Z,1005.80
2018-09-16T05:02:57.524Z,1005.86
2018-09-16T05:04:03.663Z,1005.85
2018-09-16T05:05:09.296Z,1005.80
2018-09-16T05:06:15.934Z,1005.83
2018-09-16T05:07:21.594Z,1005.79
2018-09-16T05:08:28.288Z,1005.85
2018-09-16T05:09:34.352Z,1005.83
2018-09-16T05:10:40.501Z,1005.87
2018-09-16T05:11:46.633Z,1005.89
2018-09-16T05:12:52.766Z,1005.85
2018-09-16T05:13:58.512Z,1005.82
2018-09-16T05:15:05.040Z,1005.83
2018-09-16T05:16:11.199Z,1005.82
2018-09-16T05:17:17.336Z,1005.83
2018-09-16T05:18:22.976Z,1005.85
2018-09-16T05:19:29.598Z,1005.83
2018-09-16T05:20:35.246Z,1005.82
2018-09-16T05:21:41.882Z,1005.79
2018-09-16T05:22:48.015Z,1005.83
2018-09-16T05:23:54.285Z,1005.82
2018-09-16T05:24:59.811Z,1005.83
2018-09-16T05:26:05.943Z,1005.82
2018-09-16T05:27:12.569Z,1005.81
2018-09-16T05:28:19.712Z,1005.82
2018-09-16T05:29:24.872Z,1005.84
2018-09-16T05:30:31.014Z,1005.82
2018-09-16T05:31:37.151Z,1005.83
2018-09-16T05:32:43.326Z,1005.82
2018-09-16T05:33:49.438Z,1005.83
2018-09-16T05:34:55.567Z,1005.79
2018-09-16T05:36:01.216Z,1005.81
2018-09-16T05:37:07.849Z,1005.80
2018-09-16T05:38:13.497Z,1005.78
2018-09-16T05:39:19.656Z,1005.83
2018-09-16T05:40:26.288Z,1005.84
2018-09-16T05:41:31.919Z,1005.81
2018-09-16T05:42:38.576Z,1005.79
2018-09-16T05:43:44.729Z,1005.82
2018-09-16T05:44:50.865Z,1005.84
2018-09-16T05:45:57.011Z,1005.84
2018-09-16T05:47:03.155Z,1005.83
2018-09-16T05:48:08.800Z,1005.81
2018-09-16T05:49:15.455Z,1005.81
2018-09-16T05:50:21.600Z,1005.83
2018-09-16T05:51:27.753Z,1005.84
2018-09-16T05:52:33.393Z,1005.83
2018-09-16T05:53:40.046Z,1005.84
2018-09-16T05:54:46.207Z,1005.78
2018-09-16T05:55:52.344Z,1005.81
2018-09-16T05:56:58.012Z,1005.86
2018-09-16T05:58:04.650Z,1005.88
2018-09-16T05:59:10.350Z,1005.83
2018-09-16T06:00:16.969Z,1005.84
2018-09-16T06:01:22.616Z,1005.87
2018-09-16T06:02:29.275Z,1005.89
2018-09-16T06:03:35.429Z,1005.92
2018-09-16T06:04:41.948Z,1005.94
2018-09-16T06:05:47.741Z,1005.93
2018-09-16T06:06:53.886Z,1005.93
2018-09-16T06:07:59.566Z,1005.91
2018-09-16T06:09:05.721Z,1005.95
2018-09-16T06:10:11.885Z,1005.91
2018-09-16T06:11:18.539Z,1005.92
2018-09-16T06:12:24.715Z,1005.88
2018-09-16T06:13:30.870Z,1005.90
2018-09-16T06:14:37.032Z,1005.91
2018-09-16T06:15:42.710Z,1005.90
2018-09-16T06:16:48.859Z,1005.88
2018-09-16T06:17:55.520Z,1005.92
2018-09-16T06:19:01.187Z,1005.91
2018-09-16T06:20:07.871Z,1005.91
2018-09-16T06:21:14.028Z,1005.88
2018-09-16T06:22:20.290Z,1005.83
2018-09-16T06:23:25.864Z,1005.84
2018-09-16T06:24:32.514Z,1005.86
2018-09-16T06:25:38.688Z,1005.85
2018-09-16T06:26:44.371Z,1005.85
2018-09-16T06:27:51.038Z,1005.78
2018-09-16T06:28:56.708Z,1005.84
2018-09-16T06:30:03.397Z,1005.82
2018-09-16T06:31:09.563Z,1005.85
2018-09-16T06:32:15.237Z,1005.85
2018-09-16T06:33:21.910Z,1005.82
2018-09-16T06:34:28.093Z,1005.84
2018-09-16T06:35:34.280Z,1005.85
2018-09-16T06:36:39.951Z,1005.86
2018-09-16T06:37:46.637Z,1005.85
2018-09-16T06:38:52.808Z,1005.88
2018-09-16T06:39:59.032Z,1005.89
2018-09-16T06:41:04.690Z,1005.89
2018-09-16T06:42:11.363Z,1005.82
2018-09-16T06:43:17.566Z,1005.85
2018-09-16T06:44:23.239Z,1005.83
2018-09-16T06:45:29.429Z,1005.83
2018-09-16T06:46:35.623Z,1005.89
2018-09-16T06:47:41.807Z,1005.84
2018-09-16T06:48:48.496Z,1005.87
2018-09-16T06:49:54.693Z,1005.87
2018-09-16T06:51:00.972Z,1005.85
2018-09-16T06:52:07.089Z,1005.87
2018-09-16T06:53:13.279Z,1005.80
2018-09-16T06:54:19.488Z,1005.83
2018-09-16T06:55:25.684Z,1005.84
2018-09-16T06:56:31.916Z,1005.86
2018-09-16T06:57:38.093Z,1005.85
2018-09-16T06:58:44.302Z,1005.85
2018-09-16T06:59:50.512Z,1005.85
2018-09-16T07:00:57.782Z,1005.81
2018-09-16T07:02:02.933Z,1005.84
2018-09-16T07:03:09.136Z,1005.80
2018-09-16T07:04:15.358Z,1005.79
2018-09-16T07:05:21.567Z,1005.79
2018-09-16T07:06:27.796Z,1005.77
2018-09-16T07:07:34.024Z,1005.78
2018-09-16T07:08:39.726Z,1005.78
2018-09-16T07:09:45.953Z,1005.78
2018-09-16T07:10:52.676Z,1005.76
2018-09-16T07:11:59.404Z,1005.75
2018-09-16T07:13:05.107Z,1005.71
2018-09-16T07:14:11.360Z,1005.73
2018-09-16T07:15:17.589Z,1005.72
2018-09-16T07:16:23.318Z,1005.71
2018-09-16T07:17:30.050Z,1005.73
2018-09-16T07:18:36.334Z,1005.76
2018-09-16T07:19:42.527Z,1005.76
2018-09-16T07:20:48.767Z,1005.73
2018-09-16T07:21:54.520Z,1005.75
2018-09-16T07:23:00.760Z,1005.71
2018-09-16T07:24:07.493Z,1005.73
2018-09-16T07:25:14.741Z,1005.73
2018-09-16T07:26:19.992Z,1005.77
2018-09-16T07:27:26.336Z,1005.76
2018-09-16T07:28:32.016Z,1005.77
2018-09-16T07:29:38.769Z,1005.73
2018-09-16T07:30:45.025Z,1005.76
2018-09-16T07:31:51.285Z,1005.76
2018-09-16T07:32:57.054Z,1005.79
2018-09-16T07:34:03.831Z,1005.75
2018-09-16T07:35:10.053Z,1005.70
2018-09-16T07:36:16.338Z,1005.72
2018-09-16T07:37:22.610Z,1005.70
2018-09-16T07:38:28.856Z,1005.74
2018-09-16T07:39:35.144Z,1005.74
2018-09-16T07:40:41.420Z,1005.77
2018-09-16T07:41:47.702Z,1005.75
2018-09-16T07:42:53.971Z,1005.73
2018-09-16T07:44:00.281Z,1005.75
2018-09-16T07:45:06.531Z,1005.69
2018-09-16T07:46:12.299Z,1005.70
2018-09-16T07:47:19.156Z,1005.69
2018-09-16T07:48:24.866Z,1005.66
2018-09-16T07:49:31.655Z,1005.70
2018-09-16T07:50:37.443Z,1005.69
2018-09-16T07:51:44.367Z,1005.71
2018-09-16T07:52:50.085Z,1005.70
2018-09-16T07:53:56.317Z,1005.73
2018-09-16T07:55:03.114Z,1005.71
2018-09-16T07:56:08.917Z,1005.71
2018-09-16T07:57:15.701Z,1005.71
2018-09-16T07:58:22.024Z,1005.70
2018-09-16T07:59:28.318Z,1005.60
2018-09-16T08:00:34.647Z,1005.63
2018-09-16T08:01:40.945Z,1005.65
2018-09-16T08:02:46.758Z,1005.65
2018-09-16T08:03:53.570Z,1005.63
2018-09-16T08:04:59.889Z,1005.60
2018-09-16T08:06:05.738Z,1005.58
2018-09-16T08:07:12.531Z,1005.55
2018-09-16T08:08:18.865Z,1005.52
2018-09-16T08:09:25.196Z,1005.53
2018-09-16T08:10:31.032Z,1005.54
2018-09-16T08:11:37.362Z,1005.54
2018-09-16T08:12:44.276Z,1005.54
2018-09-16T08:13:50.617Z,1005.60
2018-09-16T08:14:56.891Z,1005.58
2018-09-16T08:16:02.747Z,1005.61
2018-09-16T08:17:09.100Z,1005.61
2018-09-16T08:18:15.466Z,1005.61
2018-09-16T08:19:22.306Z,1005.58
2018-09-16T08:20:28.658Z,1005.59
2018-09-16T08:21:34.524Z,1005.62
2018-09-16T08:22:40.900Z,1005.64
2018-09-16T08:23:47.269Z,1005.65
2018-09-16T08:24:54.133Z,1005.64
2018-09-16T08:26:00.012Z,1005.60
2018-09-16T08:27:06.878Z,1005.60
2018-09-16T08:28:12.817Z,1005.55
2018-09-16T08:29:19.291Z,1005.51
2018-09-16T08:30:25.995Z,1005.51
2018-09-16T08:31:32.381Z,1005.54
2018-09-16T08:32:38.273Z,1005.56
2018-09-16T08:33:44.656Z,1005.56
2018-09-16T08:34:51.577Z,1005.65
2018-09-16T08:35:57.916Z,1005.58
2018-09-16T08:37:04.302Z,1005.55
2018-09-16T08:38:10.700Z,1005.58
2018-09-16T08:39:16.619Z,1005.57
2018-09-16T08:40:23.495Z,1005.58
2018-09-16T08:41:29.880Z,1005.57
2018-09-16T08:42:35.781Z,1005.56
2018-09-16T08:43:42.693Z,1005.58
2018-09-16T08:44:48.599Z,1005.57
2018-09-16T08:45:55.489Z,1005.54
2018-09-16T08:47:01.390Z,1005.47
2018-09-16T08:48:08.296Z,1005.48
2018-09-16T08:49:14.307Z,1005.46
2018-09-16T08:50:20.630Z,1005.48
2018-09-16T08:51:27.033Z,1005.53
2018-09-16T08:52:33.944Z,1005.51
2018-09-16T08:53:39.864Z,1005.50
2018-09-16T08:54:46.769Z,1005.49
2018-09-16T08:55:53.187Z,1005.47
2018-09-16T08:56:59.132Z,1005.46
2018-09-16T08:58:06.393Z,1005.42
2018-09-16T08:59:11.967Z,1005.42
2018-09-16T09:00:18.391Z,1005.44
2018-09-16T09:01:25.320Z,1005.44
2018-09-16T09:02:31.754Z,1005.41
2018-09-16T09:03:38.280Z,1005.40
2018-09-16T09:04:44.148Z,1005.35
2018-09-16T09:05:51.080Z,1005.39
2018-09-16T09:06:57.050Z,1005.35
2018-09-16T09:08:03.481Z,1005.37
2018-09-16T09:09:09.932Z,1005.37
2018-09-16T09:10:16.378Z,1005.35
2018-09-16T09:11:22.828Z,1005.34
2018-09-16T09:12:29.786Z,1005.34
2018-09-16T09:13:35.741Z,1005.32
2018-09-16T09:14:42.198Z,1005.28
2018-09-16T09:15:48.675Z,1005.27
2018-09-16T09:16:55.619Z,1005.25
2018-09-16T09:18:02.079Z,1005.27
2018-09-16T09:19:08.028Z,1005.25
2018-09-16T09:20:14.514Z,1005.26
2018-09-16T09:21:21.463Z,1005.25
2018-09-16T09:22:27.933Z,1005.25
2018-09-16T09:23:34.432Z,1005.27
2018-09-16T09:24:40.393Z,1005.31
2018-09-16T09:25:47.348Z,1005.21
2018-09-16T09:26:53.820Z,1005.17
2018-09-16T09:27:59.836Z,1005.18
2018-09-16T09:29:06.370Z,1005.13
2018-09-16T09:30:13.269Z,1005.13
2018-09-16T09:31:19.740Z,1005.13
2018-09-16T09:32:26.302Z,1005.05
2018-09-16T09:33:33.213Z,1005.01
2018-09-16T09:34:39.204Z,1004.93
2018-09-16T09:35:45.232Z,1004.95
2018-09-16T09:36:51.696Z,1004.92
2018-09-16T09:37:58.279Z,1004.93
2018-09-16T09:39:05.177Z,1004.88
2018-09-16T09:40:11.178Z,1004.90
2018-09-16T09:41:18.545Z,1004.88
2018-09-16T09:42:24.294Z,1004.89
2018-09-16T09:43:30.713Z,1004.87
2018-09-16T09:44:37.187Z,1004.87
2018-09-16T09:45:44.200Z,1004.79
2018-09-16T09:46:50.207Z,1004.76
2018-09-16T09:47:57.214Z,1004.78
2018-09-16T09:49:03.242Z,1004.71
2018-09-16T09:50:09.766Z,1004.78
2018-09-16T09:51:16.283Z,1004.74
2018-09-16T09:52:22.801Z,1004.74
2018-09-16T09:53:29.863Z,1004.79
2018-09-16T09:54:36.343Z,1004.76
2018-09-16T09:55:42.881Z,1004.79
2018-09-16T09:56:48.913Z,1004.78
2018-09-16T09:57:55.442Z,1004.72
2018-09-16T09:59:02.563Z,1004.67
2018-09-16T10:00:08.519Z,1004.68
2018-09-16T10:01:15.045Z,1004.67
2018-09-16T10:02:22.082Z,1004.68
2018-09-16T10:03:28.641Z,1004.67
2018-09-16T10:04:35.175Z,1004.71
2018-09-16T10:05:41.236Z,1004.69
2018-09-16T10:06:47.786Z,1004.65
2018-09-16T10:07:54.825Z,1004.64
2018-09-16T10:09:00.892Z,1004.59
2018-09-16T10:10:07.956Z,1004.62
2018-09-16T10:11:14.012Z,1004.62
2018-09-16T10:12:20.572Z,1004.59
2018-09-16T10:13:27.148Z,1004.56
2018-09-16T10:14:34.394Z,1004.59
2018-09-16T10:15:40.264Z,1004.56
2018-09-16T10:16:47.323Z,1004.54
2018-09-16T10:17:53.883Z,1004.52
2018-09-16T10:18:59.962Z,1004.53
2018-09-16T10:20:07.031Z,1004.49
2018-09-16T10:21:13.594Z,1004.47
2018-09-16T10:22:19.679Z,1004.48
2018-09-16T10:23:26.239Z,1004.46
2018-09-16T10:24:32.818Z,1004.46
2018-09-16T10:25:39.737Z,1004.43
2018-09-16T10:26:45.978Z,1004.45
2018-09-16T10:27:52.547Z,1004.37
2018-09-16T10:28:59.140Z,1004.39
2018-09-16T10:30:05.727Z,1004.35
2018-09-16T10:31:12.306Z,1004.35
2018-09-16T10:32:18.889Z,1004.33
2018-09-16T10:33:26.479Z,1004.36
2018-09-16T10:34:32.053Z,1004.34
2018-09-16T10:35:38.650Z,1004.30
2018-09-16T10:36:45.244Z,1004.29
2018-09-16T10:37:51.820Z,1004.28
2018-09-16T10:38:58.498Z,1004.23
2018-09-16T10:40:05.017Z,1004.22
2018-09-16T10:41:11.601Z,1004.23
2018-09-16T10:42:18.696Z,1004.24
2018-09-16T10:43:24.805Z,1004.21
2018-09-16T10:44:31.405Z,1004.16
2018-09-16T10:45:37.991Z,1004.15
2018-09-16T10:46:44.619Z,1004.14
2018-09-16T10:47:51.690Z,1004.12
2018-09-16T10:48:57.811Z,1004.09
2018-09-16T10:50:04.424Z,1004.03
2018-09-16T10:51:11.032Z,1004.00
2018-09-16T10:52:18.150Z,1003.94
2018-09-16T10:53:24.749Z,1003.91
2018-09-16T10:54:31.350Z,1003.96
2018-09-16T10:55:37.972Z,1003.95
2018-09-16T10:56:44.102Z,1003.92
2018-09-16T10:57:50.712Z,1003.93
2018-09-16T10:58:57.811Z,1003.94
2018-09-16T11:00:03.940Z,1003.89
2018-09-16T11:01:10.564Z,1003.91
2018-09-16T11:02:17.302Z,1003.89
2018-09-16T11:03:23.818Z,1003.86
2018-09-16T11:04:30.441Z,1003.80
2018-09-16T11:05:38.069Z,1003.79
2018-09-16T11:06:43.709Z,1003.76
2018-09-16T11:07:50.387Z,1003.72
2018-09-16T11:08:56.951Z,1003.72
2018-09-16T11:10:03.588Z,1003.77
2018-09-16T11:11:10.216Z,1003.73
2018-09-16T11:12:16.865Z,1003.72
2018-09-16T11:13:23.495Z,1003.67
2018-09-16T11:14:30.622Z,1003.61
2018-09-16T11:15:36.769Z,1003.55
2018-09-16T11:16:43.412Z,1003.54
2018-09-16T11:17:50.061Z,1003.55
2018-09-16T11:18:56.693Z,1003.47
2018-09-16T11:20:03.352Z,1003.55
2018-09-16T11:21:10.027Z,1003.55
2018-09-16T11:22:17.031Z,1003.52
2018-09-16T11:23:23.538Z,1003.53
2018-09-16T11:24:30.261Z,1003.48
2018-09-16T11:25:37.106Z,1003.49
2018-09-16T11:26:43.993Z,1003.47
2018-09-16T11:27:50.924Z,1003.49
2018-09-16T11:28:58.348Z,1003.49
2018-09-16T11:30:04.914Z,1003.50
2018-09-16T11:31:11.852Z,1003.46
2018-09-16T11:32:18.903Z,1003.45
2018-09-16T11:33:25.958Z,1003.46
2018-09-16T11:34:33.048Z,1003.41
2018-09-16T11:35:40.256Z,1003.39
2018-09-16T11:36:47.299Z,1003.37
2018-09-16T11:37:54.481Z,1003.36
2018-09-16T11:39:01.634Z,1003.34
2018-09-16T11:40:08.824Z,1003.31
2018-09-16T11:41:16.042Z,1003.31
2018-09-16T11:42:23.285Z,1003.32
2018-09-16T11:43:30.652Z,1003.32
2018-09-16T11:44:37.793Z,1003.30
2018-09-16T11:45:45.061Z,1003.26
2018-09-16T11:46:52.835Z,1003.28
2018-09-16T11:48:00.131Z,1003.29
2018-09-16T11:49:07.422Z,1003.30
2018-09-16T11:50:14.728Z,1003.22
2018-09-16T11:51:22.064Z,1003.22
2018-09-16T11:52:28.905Z,1003.25
2018-09-16T11:53:36.768Z,1003.21
2018-09-16T11:54:43.596Z,1003.24
2018-09-16T11:55:50.956Z,1003.16
2018-09-16T11:56:58.828Z,1003.10
2018-09-16T11:58:05.717Z,1003.09
2018-09-16T11:59:13.091Z,1003.05
2018-09-16T12:00:20.505Z,1003.04
2018-09-16T12:01:28.358Z,1003.06
2018-09-16T12:02:35.772Z,1003.09
2018-09-16T12:03:42.703Z,1003.09
2018-09-16T12:04:50.122Z,1003.11
2018-09-16T12:05:57.535Z,1003.09
2018-09-16T12:07:04.980Z,1003.03
2018-09-16T12:08:12.427Z,1003.04
2018-09-16T12:09:19.860Z,1002.98
2018-09-16T12:10:27.816Z,1003.01
2018-09-16T12:11:34.811Z,1002.96
2018-09-16T12:12:42.242Z,1002.97
2018-09-16T12:13:49.723Z,1002.95
2018-09-16T12:14:57.298Z,1002.93
2018-09-16T12:16:05.348Z,1002.92
2018-09-16T12:17:12.204Z,1002.93
2018-09-16T12:18:19.707Z,1002.93
2018-09-16T12:19:27.841Z,1002.90
2018-09-16T12:20:34.732Z,1002.87
2018-09-16T12:21:42.271Z,1002.84
2018-09-16T12:22:49.801Z,1002.82
2018-09-16T12:23:57.364Z,1002.85
2018-09-16T12:25:05.388Z,1002.84
2018-09-16T12:26:12.459Z,1002.79
2018-09-16T12:27:20.017Z,1002.81
2018-09-16T12:28:27.595Z,1002.77
2018-09-16T12:29:35.144Z,1002.76
2018-09-16T12:30:42.732Z,1002.76
2018-09-16T12:31:50.277Z,1002.70
2018-09-16T12:32:57.845Z,1002.72
2018-09-16T12:34:05.925Z,1002.71
2018-09-16T12:35:12.999Z,1002.69
2018-09-16T12:36:20.556Z,1002.73
2018-09-16T12:37:28.147Z,1002.66
2018-09-16T12:38:36.219Z,1002.68
2018-09-16T12:39:43.297Z,1002.69
2018-09-16T12:40:50.866Z,1002.68
2018-09-16T12:41:58.452Z,1002.67
2018-09-16T12:43:06.036Z,1002.63
2018-09-16T12:44:13.606Z,1002.64
2018-09-16T12:45:21.706Z,1002.64
2018-09-16T12:46:29.278Z,1002.63
2018-09-16T12:47:36.850Z,1002.59
2018-09-16T12:48:44.456Z,1002.59
2018-09-16T12:49:52.026Z,1002.55
2018-09-16T12:50:59.129Z,1002.54
2018-09-16T12:52:07.282Z,1002.55
2018-09-16T12:53:14.326Z,1002.56
2018-09-16T12:54:21.921Z,1002.50
2018-09-16T12:55:29.488Z,1002.49
2018-09-16T12:56:37.551Z,1002.54
2018-09-16T12:57:44.604Z,1002.54
2018-09-16T12:58:52.672Z,1002.47
2018-09-16T12:59:59.732Z,1002.48
2018-09-16T13:01:07.245Z,1002.51
2018-09-16T13:02:14.777Z,1002.55
2018-09-16T13:03:22.317Z,1002.54
2018-09-16T13:04:29.940Z,1002.54
2018-09-16T13:05:37.361Z,1002.45
2018-09-16T13:06:44.897Z,1002.53
2018-09-16T13:07:52.411Z,1002.46
2018-09-16T13:08:59.972Z,1002.47
2018-09-16T13:10:07.495Z,1002.45
2018-09-16T13:11:15.522Z,1002.43
2018-09-16T13:12:23.063Z,1002.42
2018-09-16T13:13:30.182Z,1002.40
2018-09-16T13:14:37.679Z,1002.34
2018-09-16T13:15:45.421Z,1002.39
2018-09-16T13:16:53.289Z,1002.35
2018-09-16T13:18:00.372Z,1002.35
2018-09-16T13:19:08.468Z,1002.35
2018-09-16T13:20:15.547Z,1002.26
2018-09-16T13:21:23.650Z,1002.22
2018-09-16T13:22:31.276Z,1002.18
2018-09-16T13:23:38.389Z,1002.19